Airfield :
LOGIN :

Register | Disclaimer

   EN    FR    IT 

 










Legend :    VFR   Marginal VFR   IFR   Intensive IFR   Very Intensive IFR
Visi :
Ceiling :
>= 8 km
>= 3000ft
5 to 8 km
1000 to 3000 ft
1500m to 5 km
500 to 1000 ft
800 to 1500m
200 to 500 ft
< 800m
< 200 ft
Symbols :   Thunderstorms  Fog  Heavy snow  Heavy precipitations  Wind > 20 kt
SIGMETs :     Misc.  Thunderstorms  Icing  Turbulence  Mountain Waves  Volcanic Ashes






- Airport Elevation : 124 ft
- IATA code : RNS


LFRN - Rennes

CURRENT METAR :
  • 071030Z AUTO 26006KT 200V300 9999 BKN031/// BKN039/// BKN047/// ///TCU 17/09 Q1011 TEMPO SHRA BKN012TCU

EXPIRED METARs :
  • 071000Z AUTO VRB03KT 9999 BKN029 BKN044 BKN068 16/09 Q1010 TEMPO SHRA BKN012TCU
  • 070930Z AUTO 30007KT 250V330 9999 FEW030/// SCT042/// BKN054/// ///TCU 15/09 Q1010 TEMPO SHRA BKN012TCU
  • 070900Z AUTO 30006KT 260V340 9999 FEW027/// SCT062/// BKN160/// ///TCU 16/09 Q1010 TEMPO SHRA SCT015 SCT040
  • 070830Z AUTO 27006KT 240V310 9999 FEW020 16/10 Q1010 TEMPO SHRA BKN012TCU
  • 070800Z AUTO 27007KT 240V310 9999 FEW019 BKN070 15/10 Q1010 NOSIG
  • 070730Z AUTO 27007KT 230V310 9999 FEW019 BKN070 15/10 Q1010 NOSIG

TAF TAF LFRN
Valid from the 07 at 06:00 until the 08 at 06:00 UTC


070500Z 0706/0806 26007KT 9999 SCT015 SCT040
TEMPO 0710/0717 SHRA BKN012TCU
PROB30
TEMPO 0715/0718 TSRA SCT012CB
BECMG 0712/0715 33010KT
ATIS : +33 2 99 67 72 50



MET'MAP, your aeronautical weather chart ! - Copyright ORBIFLY December 2007 - Disclaimer

ORBIFLY MET'MAP TEAM :

Programming & Development : Alexandra Zaïnal
Concept & original design : Baudouin d'Aumeries
Assistance for programming : Marc-Olivier Méhu
Technical & hardware support : Manuel Goepfert

Contact : metmap@orbifly.com




SOURCES & CREDITS :

   NOAA